sensor_id;sensor_type;location;lat;lon;timestamp;P1;durP1;ratioP1;P2;durP2;ratioP2
12267;SDS011;6196;48.398;11.736;2023-06-19T00:01:08;8.27;;;6.97;;
12267;SDS011;6196;48.398;11.736;2023-06-19T00:03:35;7.27;;;6.50;;
12267;SDS011;6196;48.398;11.736;2023-06-19T00:06:02;6.57;;;5.97;;
12267;SDS011;6196;48.398;11.736;2023-06-19T00:08:29;6.83;;;6.20;;
12267;SDS011;6196;48.398;11.736;2023-06-19T00:10:56;7.20;;;6.50;;
12267;SDS011;6196;48.398;11.736;2023-06-19T00:13:24;6.33;;;5.80;;
12267;SDS011;6196;48.398;11.736;2023-06-19T00:15:51;7.53;;;6.83;;
12267;SDS011;6196;48.398;11.736;2023-06-19T00:18:18;7.20;;;6.60;;
12267;SDS011;6196;48.398;11.736;2023-06-19T00:20:46;7.83;;;7.13;;
12267;SDS011;6196;48.398;11.736;2023-06-19T00:23:16;7.90;;;7.07;;
12267;SDS011;6196;48.398;11.736;2023-06-19T00:25:43;7.10;;;6.50;;
12267;SDS011;6196;48.398;11.736;2023-06-19T00:28:11;7.67;;;6.87;;
12267;SDS011;6196;48.398;11.736;2023-06-19T00:30:41;8.60;;;7.43;;
12267;SDS011;6196;48.398;11.736;2023-06-19T00:33:08;8.23;;;6.90;;
12267;SDS011;6196;48.398;11.736;2023-06-19T00:35:35;7.53;;;6.83;;
12267;SDS011;6196;48.398;11.736;2023-06-19T00:38:03;7.43;;;6.33;;
12267;SDS011;6196;48.398;11.736;2023-06-19T00:40:32;8.07;;;7.27;;
12267;SDS011;6196;48.398;11.736;2023-06-19T00:43:00;7.30;;;6.67;;
12267;SDS011;6196;48.398;11.736;2023-06-19T00:45:28;9.73;;;7.00;;
12267;SDS011;6196;48.398;11.736;2023-06-19T00:47:55;7.20;;;6.50;;
12267;SDS011;6196;48.398;11.736;2023-06-19T00:50:24;6.73;;;6.13;;
12267;SDS011;6196;48.398;11.736;2023-06-19T00:52:52;6.57;;;5.97;;
12267;SDS011;6196;48.398;11.736;2023-06-19T00:55:19;6.67;;;6.17;;
12267;SDS011;6196;48.398;11.736;2023-06-19T00:57:48;6.87;;;6.23;;
12267;SDS011;6196;48.398;11.736;2023-06-19T01:00:18;7.07;;;6.33;;
12267;SDS011;6196;48.398;11.736;2023-06-19T01:02:46;7.60;;;6.90;;
12267;SDS011;6196;48.398;11.736;2023-06-19T01:05:14;7.23;;;6.53;;
12267;SDS011;6196;48.398;11.736;2023-06-19T01:07:48;9.53;;;6.63;;
12267;SDS011;6196;48.398;11.736;2023-06-19T01:10:45;6.67;;;6.13;;
12267;SDS011;6196;48.398;11.736;2023-06-19T01:13:19;7.93;;;7.20;;
12267;SDS011;6196;48.398;11.736;2023-06-19T01:15:56;7.67;;;6.97;;
12267;SDS011;6196;48.398;11.736;2023-06-19T01:18:24;7.13;;;6.53;;
12267;SDS011;6196;48.398;11.736;2023-06-19T01:20:53;8.10;;;7.30;;
12267;SDS011;6196;48.398;11.736;2023-06-19T01:23:20;8.33;;;7.63;;
12267;SDS011;6196;48.398;11.736;2023-06-19T01:25:47;8.20;;;7.40;;
12267;SDS011;6196;48.398;11.736;2023-06-19T01:28:14;7.93;;;7.23;;
12267;SDS011;6196;48.398;11.736;2023-06-19T01:30:41;8.10;;;7.30;;
12267;SDS011;6196;48.398;11.736;2023-06-19T01:33:11;7.07;;;6.37;;
12267;SDS011;6196;48.398;11.736;2023-06-19T01:35:44;8.10;;;6.90;;
12267;SDS011;6196;48.398;11.736;2023-06-19T01:38:13;6.83;;;6.23;;
12267;SDS011;6196;48.398;11.736;2023-06-19T01:40:41;7.13;;;6.43;;
12267;SDS011;6196;48.398;11.736;2023-06-19T01:43:08;7.40;;;6.70;;
12267;SDS011;6196;48.398;11.736;2023-06-19T01:45:37;7.63;;;6.83;;
12267;SDS011;6196;48.398;11.736;2023-06-19T01:48:04;7.63;;;7.03;;
12267;SDS011;6196;48.398;11.736;2023-06-19T01:50:31;8.93;;;8.07;;
12267;SDS011;6196;48.398;11.736;2023-06-19T01:52:58;7.60;;;6.90;;
12267;SDS011;6196;48.398;11.736;2023-06-19T01:55:25;7.77;;;7.13;;
12267;SDS011;6196;48.398;11.736;2023-06-19T01:57:52;8.63;;;7.83;;
12267;SDS011;6196;48.398;11.736;2023-06-19T02:00:19;8.17;;;7.40;;
12267;SDS011;6196;48.398;11.736;2023-06-19T02:02:46;8.47;;;7.63;;
12267;SDS011;6196;48.398;11.736;2023-06-19T02:05:13;7.87;;;7.17;;
12267;SDS011;6196;48.398;11.736;2023-06-19T02:07:41;7.90;;;7.10;;
12267;SDS011;6196;48.398;11.736;2023-06-19T02:10:08;8.53;;;7.63;;
12267;SDS011;6196;48.398;11.736;2023-06-19T02:12:35;8.13;;;7.43;;
12267;SDS011;6196;48.398;11.736;2023-06-19T02:15:02;8.03;;;7.03;;
12267;SDS011;6196;48.398;11.736;2023-06-19T02:17:30;8.37;;;7.57;;
12267;SDS011;6196;48.398;11.736;2023-06-19T02:19:57;8.80;;;8.00;;
12267;SDS011;6196;48.398;11.736;2023-06-19T02:22:24;8.60;;;7.93;;
12267;SDS011;6196;48.398;11.736;2023-06-19T02:24:51;8.50;;;7.60;;
12267;SDS011;6196;48.398;11.736;2023-06-19T02:27:18;8.80;;;7.90;;
12267;SDS011;6196;48.398;11.736;2023-06-19T02:29:45;9.00;;;7.87;;
12267;SDS011;6196;48.398;11.736;2023-06-19T02:32:11;9.50;;;8.60;;
12267;SDS011;6196;48.398;11.736;2023-06-19T02:34:38;8.73;;;7.90;;
12267;SDS011;6196;48.398;11.736;2023-06-19T02:37:05;8.60;;;7.77;;
12267;SDS011;6196;48.398;11.736;2023-06-19T02:39:34;8.80;;;8.00;;
12267;SDS011;6196;48.398;11.736;2023-06-19T02:42:01;8.33;;;7.63;;
12267;SDS011;6196;48.398;11.736;2023-06-19T02:44:28;9.73;;;8.70;;
12267;SDS011;6196;48.398;11.736;2023-06-19T02:46:55;9.33;;;8.40;;
12267;SDS011;6196;48.398;11.736;2023-06-19T02:49:22;8.70;;;7.90;;
12267;SDS011;6196;48.398;11.736;2023-06-19T02:51:48;9.33;;;8.40;;
12267;SDS011;6196;48.398;11.736;2023-06-19T02:54:15;9.27;;;7.87;;
12267;SDS011;6196;48.398;11.736;2023-06-19T02:56:42;9.00;;;8.10;;
12267;SDS011;6196;48.398;11.736;2023-06-19T02:59:09;9.43;;;8.53;;
12267;SDS011;6196;48.398;11.736;2023-06-19T03:01:36;9.70;;;8.13;;
12267;SDS011;6196;48.398;11.736;2023-06-19T03:04:03;9.63;;;8.03;;
12267;SDS011;6196;48.398;11.736;2023-06-19T03:06:30;9.20;;;8.40;;
12267;SDS011;6196;48.398;11.736;2023-06-19T03:08:59;9.87;;;8.60;;
12267;SDS011;6196;48.398;11.736;2023-06-19T03:11:26;9.30;;;8.47;;
12267;SDS011;6196;48.398;11.736;2023-06-19T03:13:53;8.33;;;7.63;;
12267;SDS011;6196;48.398;11.736;2023-06-19T03:16:22;9.20;;;8.30;;
12267;SDS011;6196;48.398;11.736;2023-06-19T03:18:49;8.93;;;8.13;;
12267;SDS011;6196;48.398;11.736;2023-06-19T03:21:18;9.17;;;8.23;;
12267;SDS011;6196;48.398;11.736;2023-06-19T03:23:46;9.37;;;8.40;;
12267;SDS011;6196;48.398;11.736;2023-06-19T03:26:13;9.00;;;8.20;;
12267;SDS011;6196;48.398;11.736;2023-06-19T03:28:40;8.50;;;7.70;;
12267;SDS011;6196;48.398;11.736;2023-06-19T03:31:07;8.93;;;8.13;;
12267;SDS011;6196;48.398;11.736;2023-06-19T03:33:34;9.40;;;8.50;;
12267;SDS011;6196;48.398;11.736;2023-06-19T03:36:01;8.50;;;7.80;;
12267;SDS011;6196;48.398;11.736;2023-06-19T03:38:29;8.80;;;8.00;;
12267;SDS011;6196;48.398;11.736;2023-06-19T03:40:56;9.97;;;8.80;;
12267;SDS011;6196;48.398;11.736;2023-06-19T03:43:22;8.90;;;8.10;;
12267;SDS011;6196;48.398;11.736;2023-06-19T03:45:49;9.20;;;8.07;;
12267;SDS011;6196;48.398;11.736;2023-06-19T03:48:17;8.33;;;7.60;;
12267;SDS011;6196;48.398;11.736;2023-06-19T03:50:44;8.73;;;7.83;;
12267;SDS011;6196;48.398;11.736;2023-06-19T03:53:11;8.97;;;8.07;;
12267;SDS011;6196;48.398;11.736;2023-06-19T03:55:38;8.97;;;8.07;;
12267;SDS011;6196;48.398;11.736;2023-06-19T03:58:05;8.93;;;8.23;;
12267;SDS011;6196;48.398;11.736;2023-06-19T04:00:32;9.17;;;8.37;;
12267;SDS011;6196;48.398;11.736;2023-06-19T04:02:59;9.60;;;8.73;;
12267;SDS011;6196;48.398;11.736;2023-06-19T04:05:26;10.33;;;9.30;;
12267;SDS011;6196;48.398;11.736;2023-06-19T04:07:53;9.47;;;8.57;;
12267;SDS011;6196;48.398;11.736;2023-06-19T04:10:20;10.97;;;9.50;;
12267;SDS011;6196;48.398;11.736;2023-06-19T04:12:47;9.33;;;8.43;;
12267;SDS011;6196;48.398;11.736;2023-06-19T04:15:14;9.07;;;8.27;;
12267;SDS011;6196;48.398;11.736;2023-06-19T04:17:41;10.03;;;8.97;;
12267;SDS011;6196;48.398;11.736;2023-06-19T04:20:08;9.53;;;8.57;;
12267;SDS011;6196;48.398;11.736;2023-06-19T04:22:38;10.20;;;8.77;;
12267;SDS011;6196;48.398;11.736;2023-06-19T04:25:07;10.57;;;9.53;;
12267;SDS011;6196;48.398;11.736;2023-06-19T04:27:37;10.07;;;9.07;;
12267;SDS011;6196;48.398;11.736;2023-06-19T04:30:05;10.00;;;9.10;;
12267;SDS011;6196;48.398;11.736;2023-06-19T04:32:33;11.57;;;9.33;;
12267;SDS011;6196;48.398;11.736;2023-06-19T04:35:01;9.13;;;8.33;;
12267;SDS011;6196;48.398;11.736;2023-06-19T04:37:29;9.57;;;8.67;;
12267;SDS011;6196;48.398;11.736;2023-06-19T04:39:56;9.70;;;8.70;;
12267;SDS011;6196;48.398;11.736;2023-06-19T04:42:24;10.30;;;9.40;;
12267;SDS011;6196;48.398;11.736;2023-06-19T04:44:52;10.53;;;9.50;;
12267;SDS011;6196;48.398;11.736;2023-06-19T04:47:20;9.73;;;8.83;;
12267;SDS011;6196;48.398;11.736;2023-06-19T04:49:51;9.63;;;8.73;;
12267;SDS011;6196;48.398;11.736;2023-06-19T04:52:18;11.03;;;9.43;;
12267;SDS011;6196;48.398;11.736;2023-06-19T04:54:45;12.87;;;9.20;;
12267;SDS011;6196;48.398;11.736;2023-06-19T04:57:14;11.23;;;9.43;;
12267;SDS011;6196;48.398;11.736;2023-06-19T04:59:42;9.57;;;8.57;;
12267;SDS011;6196;48.398;11.736;2023-06-19T05:02:10;9.80;;;9.00;;
12267;SDS011;6196;48.398;11.736;2023-06-19T05:04:37;11.20;;;10.10;;
12267;SDS011;6196;48.398;11.736;2023-06-19T05:07:04;11.17;;;10.07;;
12267;SDS011;6196;48.398;11.736;2023-06-19T05:09:32;10.33;;;9.43;;
12267;SDS011;6196;48.398;11.736;2023-06-19T05:11:59;9.63;;;8.70;;
12267;SDS011;6196;48.398;11.736;2023-06-19T05:14:26;10.67;;;9.20;;
12267;SDS011;6196;48.398;11.736;2023-06-19T05:16:53;10.43;;;9.43;;
12267;SDS011;6196;48.398;11.736;2023-06-19T05:19:20;10.17;;;9.20;;
12267;SDS011;6196;48.398;11.736;2023-06-19T05:21:47;10.90;;;9.80;;
12267;SDS011;6196;48.398;11.736;2023-06-19T05:24:13;10.07;;;9.07;;
12267;SDS011;6196;48.398;11.736;2023-06-19T05:26:40;11.97;;;10.43;;
12267;SDS011;6196;48.398;11.736;2023-06-19T05:29:07;11.90;;;10.67;;
12267;SDS011;6196;48.398;11.736;2023-06-19T05:31:34;11.80;;;10.70;;
12267;SDS011;6196;48.398;11.736;2023-06-19T05:34:02;12.33;;;9.50;;
12267;SDS011;6196;48.398;11.736;2023-06-19T05:36:29;11.47;;;10.03;;
12267;SDS011;6196;48.398;11.736;2023-06-19T05:38:56;10.63;;;9.57;;
12267;SDS011;6196;48.398;11.736;2023-06-19T05:41:23;12.30;;;10.10;;
12267;SDS011;6196;48.398;11.736;2023-06-19T05:43:50;11.37;;;10.37;;
12267;SDS011;6196;48.398;11.736;2023-06-19T05:46:17;11.03;;;9.97;;
12267;SDS011;6196;48.398;11.736;2023-06-19T05:48:44;11.70;;;10.60;;
12267;SDS011;6196;48.398;11.736;2023-06-19T05:51:11;12.07;;;10.87;;
12267;SDS011;6196;48.398;11.736;2023-06-19T05:53:38;11.90;;;10.67;;
12267;SDS011;6196;48.398;11.736;2023-06-19T05:56:05;11.13;;;9.27;;
12267;SDS011;6196;48.398;11.736;2023-06-19T05:58:33;11.13;;;10.03;;
12267;SDS011;6196;48.398;11.736;2023-06-19T06:01:00;12.33;;;11.10;;
12267;SDS011;6196;48.398;11.736;2023-06-19T06:03:27;12.77;;;10.43;;
12267;SDS011;6196;48.398;11.736;2023-06-19T06:05:57;11.10;;;9.47;;
12267;SDS011;6196;48.398;11.736;2023-06-19T06:08:29;11.57;;;10.37;;
12267;SDS011;6196;48.398;11.736;2023-06-19T06:10:57;13.70;;;10.27;;
12267;SDS011;6196;48.398;11.736;2023-06-19T06:13:23;15.70;;;10.67;;
12267;SDS011;6196;48.398;11.736;2023-06-19T06:15:51;13.37;;;10.77;;
12267;SDS011;6196;48.398;11.736;2023-06-19T06:18:18;12.20;;;11.03;;
12267;SDS011;6196;48.398;11.736;2023-06-19T06:20:45;10.80;;;9.70;;
12267;SDS011;6196;48.398;11.736;2023-06-19T06:23:12;11.10;;;10.00;;
12267;SDS011;6196;48.398;11.736;2023-06-19T06:25:39;11.63;;;10.37;;
12267;SDS011;6196;48.398;11.736;2023-06-19T06:28:06;12.20;;;11.00;;
12267;SDS011;6196;48.398;11.736;2023-06-19T06:30:33;11.23;;;10.13;;
12267;SDS011;6196;48.398;11.736;2023-06-19T06:33:00;12.23;;;10.80;;
12267;SDS011;6196;48.398;11.736;2023-06-19T06:35:27;10.93;;;10.00;;
12267;SDS011;6196;48.398;11.736;2023-06-19T06:37:54;12.23;;;10.90;;
12267;SDS011;6196;48.398;11.736;2023-06-19T06:40:21;11.87;;;10.67;;
12267;SDS011;6196;48.398;11.736;2023-06-19T06:42:48;11.97;;;10.87;;
12267;SDS011;6196;48.398;11.736;2023-06-19T06:45:15;10.60;;;9.70;;
12267;SDS011;6196;48.398;11.736;2023-06-19T06:47:42;10.30;;;9.33;;
12267;SDS011;6196;48.398;11.736;2023-06-19T06:50:09;10.80;;;9.80;;
12267;SDS011;6196;48.398;11.736;2023-06-19T06:52:37;10.97;;;9.97;;
12267;SDS011;6196;48.398;11.736;2023-06-19T06:55:04;10.50;;;9.17;;
12267;SDS011;6196;48.398;11.736;2023-06-19T06:57:31;9.83;;;8.93;;
12267;SDS011;6196;48.398;11.736;2023-06-19T06:59:58;11.20;;;10.03;;
12267;SDS011;6196;48.398;11.736;2023-06-19T07:02:25;12.07;;;10.20;;
12267;SDS011;6196;48.398;11.736;2023-06-19T07:04:52;10.20;;;9.30;;
12267;SDS011;6196;48.398;11.736;2023-06-19T07:07:19;10.67;;;9.77;;
12267;SDS011;6196;48.398;11.736;2023-06-19T07:09:47;10.07;;;9.20;;
12267;SDS011;6196;48.398;11.736;2023-06-19T07:12:14;10.13;;;9.13;;
12267;SDS011;6196;48.398;11.736;2023-06-19T07:14:41;12.13;;;10.83;;
12267;SDS011;6196;48.398;11.736;2023-06-19T07:17:08;11.53;;;10.43;;
12267;SDS011;6196;48.398;11.736;2023-06-19T07:19:35;11.33;;;10.33;;
12267;SDS011;6196;48.398;11.736;2023-06-19T07:22:02;12.10;;;11.00;;
12267;SDS011;6196;48.398;11.736;2023-06-19T07:24:29;12.90;;;10.40;;
12267;SDS011;6196;48.398;11.736;2023-06-19T07:26:56;11.30;;;10.17;;
12267;SDS011;6196;48.398;11.736;2023-06-19T07:29:23;11.13;;;10.03;;
12267;SDS011;6196;48.398;11.736;2023-06-19T07:31:51;11.93;;;10.27;;
12267;SDS011;6196;48.398;11.736;2023-06-19T07:34:19;12.87;;;10.30;;
12267;SDS011;6196;48.398;11.736;2023-06-19T07:36:46;11.57;;;10.07;;
12267;SDS011;6196;48.398;11.736;2023-06-19T07:39:13;11.47;;;10.27;;
12267;SDS011;6196;48.398;11.736;2023-06-19T07:41:40;13.00;;;9.57;;
12267;SDS011;6196;48.398;11.736;2023-06-19T07:44:06;10.57;;;9.67;;
12267;SDS011;6196;48.398;11.736;2023-06-19T07:46:33;11.07;;;9.97;;
12267;SDS011;6196;48.398;11.736;2023-06-19T07:49:01;10.57;;;9.60;;
12267;SDS011;6196;48.398;11.736;2023-06-19T07:51:28;10.63;;;9.73;;
12267;SDS011;6196;48.398;11.736;2023-06-19T07:53:55;11.27;;;10.10;;
12267;SDS011;6196;48.398;11.736;2023-06-19T07:56:21;10.80;;;9.85;;
12267;SDS011;6196;48.398;11.736;2023-06-19T07:58:48;10.63;;;9.55;;
12267;SDS011;6196;48.398;11.736;2023-06-19T08:01:15;12.05;;;9.65;;
12267;SDS011;6196;48.398;11.736;2023-06-19T08:03:43;10.27;;;9.27;;
12267;SDS011;6196;48.398;11.736;2023-06-19T08:06:10;10.77;;;9.52;;
12267;SDS011;6196;48.398;11.736;2023-06-19T08:08:37;10.43;;;9.52;;
12267;SDS011;6196;48.398;11.736;2023-06-19T08:11:04;10.02;;;9.13;;
12267;SDS011;6196;48.398;11.736;2023-06-19T08:13:31;10.95;;;9.85;;
12267;SDS011;6196;48.398;11.736;2023-06-19T08:15:58;10.25;;;9.23;;
12267;SDS011;6196;48.398;11.736;2023-06-19T08:18:25;10.93;;;9.63;;
12267;SDS011;6196;48.398;11.736;2023-06-19T08:20:52;12.23;;;9.30;;
12267;SDS011;6196;48.398;11.736;2023-06-19T08:23:18;8.88;;;8.18;;
12267;SDS011;6196;48.398;11.736;2023-06-19T08:25:45;9.88;;;8.95;;
12267;SDS011;6196;48.398;11.736;2023-06-19T08:28:12;9.98;;;9.13;;
12267;SDS011;6196;48.398;11.736;2023-06-19T08:30:39;9.27;;;8.48;;
12267;SDS011;6196;48.398;11.736;2023-06-19T08:33:06;10.05;;;9.05;;
12267;SDS011;6196;48.398;11.736;2023-06-19T08:35:34;9.60;;;8.70;;
12267;SDS011;6196;48.398;11.736;2023-06-19T08:38:01;11.13;;;9.10;;
12267;SDS011;6196;48.398;11.736;2023-06-19T08:40:28;9.77;;;8.88;;
12267;SDS011;6196;48.398;11.736;2023-06-19T08:42:55;11.50;;;10.30;;
12267;SDS011;6196;48.398;11.736;2023-06-19T08:45:22;10.15;;;9.25;;
12267;SDS011;6196;48.398;11.736;2023-06-19T08:47:49;10.73;;;9.63;;
12267;SDS011;6196;48.398;11.736;2023-06-19T08:50:24;10.82;;;9.88;;
12267;SDS011;6196;48.398;11.736;2023-06-19T08:52:52;11.35;;;10.25;;
12267;SDS011;6196;48.398;11.736;2023-06-19T08:55:21;11.10;;;9.95;;
12267;SDS011;6196;48.398;11.736;2023-06-19T08:57:49;11.65;;;10.48;;
12267;SDS011;6196;48.398;11.736;2023-06-19T09:00:24;10.68;;;9.77;;
12267;SDS011;6196;48.398;11.736;2023-06-19T09:03:03;10.75;;;9.80;;
12267;SDS011;6196;48.398;11.736;2023-06-19T09:05:40;11.07;;;9.35;;
12267;SDS011;6196;48.398;11.736;2023-06-19T09:08:17;11.00;;;10.00;;
12267;SDS011;6196;48.398;11.736;2023-06-19T09:11:02;10.82;;;9.48;;
12267;SDS011;6196;48.398;11.736;2023-06-19T09:13:30;11.95;;;8.88;;
12267;SDS011;6196;48.398;11.736;2023-06-19T09:15:59;9.80;;;8.93;;
12267;SDS011;6196;48.398;11.736;2023-06-19T09:18:47;8.73;;;7.82;;
12267;SDS011;6196;48.398;11.736;2023-06-19T09:21:18;7.88;;;7.18;;
12267;SDS011;6196;48.398;11.736;2023-06-19T09:23:48;8.60;;;5.47;;
12267;SDS011;6196;48.398;11.736;2023-06-19T09:26:18;6.22;;;5.57;;
12267;SDS011;6196;48.398;11.736;2023-06-19T09:28:46;5.57;;;5.10;;
12267;SDS011;6196;48.398;11.736;2023-06-19T09:31:16;6.43;;;5.65;;
12267;SDS011;6196;48.398;11.736;2023-06-19T09:33:43;6.00;;;5.40;;
12267;SDS011;6196;48.398;11.736;2023-06-19T09:36:10;5.85;;;5.35;;
12267;SDS011;6196;48.398;11.736;2023-06-19T09:38:38;6.88;;;5.00;;
12267;SDS011;6196;48.398;11.736;2023-06-19T09:41:06;5.07;;;4.68;;
12267;SDS011;6196;48.398;11.736;2023-06-19T09:43:37;5.30;;;4.80;;
12267;SDS011;6196;48.398;11.736;2023-06-19T09:46:10;5.13;;;4.72;;
12267;SDS011;6196;48.398;11.736;2023-06-19T09:48:45;6.35;;;4.72;;
12267;SDS011;6196;48.398;11.736;2023-06-19T09:51:19;5.10;;;4.47;;
12267;SDS011;6196;48.398;11.736;2023-06-19T09:53:48;5.55;;;4.85;;
12267;SDS011;6196;48.398;11.736;2023-06-19T09:56:17;7.15;;;5.75;;
12267;SDS011;6196;48.398;11.736;2023-06-19T09:58:48;6.95;;;5.15;;
12267;SDS011;6196;48.398;11.736;2023-06-19T10:01:17;5.65;;;5.10;;
12267;SDS011;6196;48.398;11.736;2023-06-19T10:03:46;5.38;;;4.88;;
12267;SDS011;6196;48.398;11.736;2023-06-19T10:06:14;5.38;;;4.82;;
12267;SDS011;6196;48.398;11.736;2023-06-19T10:08:43;5.43;;;4.93;;
12267;SDS011;6196;48.398;11.736;2023-06-19T10:11:11;5.70;;;5.20;;
12267;SDS011;6196;48.398;11.736;2023-06-19T10:13:42;6.10;;;5.60;;
12267;SDS011;6196;48.398;11.736;2023-06-19T10:16:19;5.85;;;5.35;;
12267;SDS011;6196;48.398;11.736;2023-06-19T10:18:48;4.65;;;4.25;;
12267;SDS011;6196;48.398;11.736;2023-06-19T10:21:16;4.80;;;4.40;;
12267;SDS011;6196;48.398;11.736;2023-06-19T10:23:52;4.57;;;4.28;;
12267;SDS011;6196;48.398;11.736;2023-06-19T10:26:32;4.80;;;4.40;;
12267;SDS011;6196;48.398;11.736;2023-06-19T10:29:14;5.13;;;4.72;;
12267;SDS011;6196;48.398;11.736;2023-06-19T10:31:45;6.13;;;4.97;;
12267;SDS011;6196;48.398;11.736;2023-06-19T10:34:12;5.63;;;5.18;;
12267;SDS011;6196;48.398;11.736;2023-06-19T10:36:39;5.43;;;4.93;;
12267;SDS011;6196;48.398;11.736;2023-06-19T10:39:06;6.30;;;5.68;;
12267;SDS011;6196;48.398;11.736;2023-06-19T10:41:33;6.05;;;5.03;;
12267;SDS011;6196;48.398;11.736;2023-06-19T10:44:01;5.57;;;5.15;;
12267;SDS011;6196;48.398;11.736;2023-06-19T10:46:36;6.13;;;5.13;;
12267;SDS011;6196;48.398;11.736;2023-06-19T10:49:05;6.15;;;5.32;;
12267;SDS011;6196;48.398;11.736;2023-06-19T10:51:34;5.20;;;4.78;;
12267;SDS011;6196;48.398;11.736;2023-06-19T10:54:02;5.35;;;4.85;;
12267;SDS011;6196;48.398;11.736;2023-06-19T10:56:29;5.57;;;4.97;;
12267;SDS011;6196;48.398;11.736;2023-06-19T10:59:03;6.22;;;5.53;;
12267;SDS011;6196;48.398;11.736;2023-06-19T11:01:37;5.78;;;5.28;;
12267;SDS011;6196;48.398;11.736;2023-06-19T11:04:13;6.40;;;5.80;;
12267;SDS011;6196;48.398;11.736;2023-06-19T11:06:42;8.65;;;5.63;;
12267;SDS011;6196;48.398;11.736;2023-06-19T11:09:10;6.35;;;5.68;;
12267;SDS011;6196;48.398;11.736;2023-06-19T11:11:40;5.00;;;4.43;;
12267;SDS011;6196;48.398;11.736;2023-06-19T11:14:13;5.30;;;4.90;;
12267;SDS011;6196;48.398;11.736;2023-06-19T11:16:43;5.32;;;4.93;;
12267;SDS011;6196;48.398;11.736;2023-06-19T11:19:17;5.50;;;5.00;;
12267;SDS011;6196;48.398;11.736;2023-06-19T11:21:47;4.93;;;4.55;;
12267;SDS011;6196;48.398;11.736;2023-06-19T11:24:17;4.47;;;4.18;;
12267;SDS011;6196;48.398;11.736;2023-06-19T11:26:46;5.03;;;4.60;;
12267;SDS011;6196;48.398;11.736;2023-06-19T11:29:25;4.97;;;4.32;;
12267;SDS011;6196;48.398;11.736;2023-06-19T11:32:05;5.47;;;4.90;;
12267;SDS011;6196;48.398;11.736;2023-06-19T11:34:35;5.30;;;4.90;;
12267;SDS011;6196;48.398;11.736;2023-06-19T11:37:12;6.15;;;5.22;;
12267;SDS011;6196;48.398;11.736;2023-06-19T11:39:48;5.13;;;4.63;;
12267;SDS011;6196;48.398;11.736;2023-06-19T11:42:18;6.72;;;5.22;;
12267;SDS011;6196;48.398;11.736;2023-06-19T11:45:01;5.75;;;5.35;;
12267;SDS011;6196;48.398;11.736;2023-06-19T11:47:32;6.68;;;5.97;;
12267;SDS011;6196;48.398;11.736;2023-06-19T11:50:00;6.88;;;5.15;;
12267;SDS011;6196;48.398;11.736;2023-06-19T11:52:31;6.45;;;5.88;;
12267;SDS011;6196;48.398;11.736;2023-06-19T11:54:58;5.97;;;5.47;;
12267;SDS011;6196;48.398;11.736;2023-06-19T11:57:26;6.65;;;6.03;;
12267;SDS011;6196;48.398;11.736;2023-06-19T11:59:53;6.55;;;6.05;;
12267;SDS011;6196;48.398;11.736;2023-06-19T12:02:20;6.05;;;5.50;;
12267;SDS011;6196;48.398;11.736;2023-06-19T12:04:48;6.50;;;6.00;;
12267;SDS011;6196;48.398;11.736;2023-06-19T12:07:15;6.65;;;6.15;;
12267;SDS011;6196;48.398;11.736;2023-06-19T12:09:42;6.70;;;6.10;;
12267;SDS011;6196;48.398;11.736;2023-06-19T12:12:09;6.85;;;6.32;;
12267;SDS011;6196;48.398;11.736;2023-06-19T12:14:36;7.30;;;6.63;;
12267;SDS011;6196;48.398;11.736;2023-06-19T12:17:03;7.10;;;6.50;;
12267;SDS011;6196;48.398;11.736;2023-06-19T12:19:30;6.55;;;6.05;;
12267;SDS011;6196;48.398;11.736;2023-06-19T12:21:57;6.32;;;5.80;;
12267;SDS011;6196;48.398;11.736;2023-06-19T12:24:25;6.22;;;5.72;;
12267;SDS011;6196;48.398;11.736;2023-06-19T12:26:52;5.93;;;5.43;;
12267;SDS011;6196;48.398;11.736;2023-06-19T12:29:19;6.18;;;5.60;;
12267;SDS011;6196;48.398;11.736;2023-06-19T12:31:47;5.65;;;5.22;;
12267;SDS011;6196;48.398;11.736;2023-06-19T12:34:14;5.10;;;4.10;;
12267;SDS011;6196;48.398;11.736;2023-06-19T12:36:56;5.78;;;4.70;;
12267;SDS011;6196;48.398;11.736;2023-06-19T12:39:24;7.10;;;5.20;;
12267;SDS011;6196;48.398;11.736;2023-06-19T12:41:51;5.10;;;4.70;;
12267;SDS011;6196;48.398;11.736;2023-06-19T12:44:18;5.10;;;4.75;;
12267;SDS011;6196;48.398;11.736;2023-06-19T12:46:47;5.60;;;4.80;;
12267;SDS011;6196;48.398;11.736;2023-06-19T12:49:14;5.05;;;4.65;;
12267;SDS011;6196;48.398;11.736;2023-06-19T12:51:41;6.90;;;4.93;;
12267;SDS011;6196;48.398;11.736;2023-06-19T12:54:08;5.97;;;4.40;;
12267;SDS011;6196;48.398;11.736;2023-06-19T12:56:35;5.38;;;4.88;;
12267;SDS011;6196;48.398;11.736;2023-06-19T12:59:02;4.82;;;4.30;;
12267;SDS011;6196;48.398;11.736;2023-06-19T13:01:29;5.20;;;4.65;;
12267;SDS011;6196;48.398;11.736;2023-06-19T13:03:56;5.95;;;4.80;;
12267;SDS011;6196;48.398;11.736;2023-06-19T13:06:23;4.75;;;4.45;;
12267;SDS011;6196;48.398;11.736;2023-06-19T13:08:50;5.00;;;4.60;;
12267;SDS011;6196;48.398;11.736;2023-06-19T13:11:17;5.13;;;4.60;;
12267;SDS011;6196;48.398;11.736;2023-06-19T13:13:44;4.65;;;4.25;;
12267;SDS011;6196;48.398;11.736;2023-06-19T13:16:11;5.05;;;4.53;;
12267;SDS011;6196;48.398;11.736;2023-06-19T13:18:40;4.50;;;4.20;;
12267;SDS011;6196;48.398;11.736;2023-06-19T13:21:07;4.97;;;4.57;;
12267;SDS011;6196;48.398;11.736;2023-06-19T13:23:34;4.93;;;4.53;;
12267;SDS011;6196;48.398;11.736;2023-06-19T13:26:01;6.50;;;4.68;;
12267;SDS011;6196;48.398;11.736;2023-06-19T13:28:28;4.97;;;4.57;;
12267;SDS011;6196;48.398;11.736;2023-06-19T13:30:55;5.65;;;5.25;;
12267;SDS011;6196;48.398;11.736;2023-06-19T13:33:22;15.98;;;5.45;;
12267;SDS011;6196;48.398;11.736;2023-06-19T13:35:49;4.95;;;4.57;;
12267;SDS011;6196;48.398;11.736;2023-06-19T13:38:16;6.65;;;4.57;;
12267;SDS011;6196;48.398;11.736;2023-06-19T13:40:43;4.50;;;4.07;;
12267;SDS011;6196;48.398;11.736;2023-06-19T13:43:10;4.65;;;4.22;;
12267;SDS011;6196;48.398;11.736;2023-06-19T13:45:38;4.60;;;4.25;;
12267;SDS011;6196;48.398;11.736;2023-06-19T13:48:05;5.30;;;4.28;;
12267;SDS011;6196;48.398;11.736;2023-06-19T13:50:32;4.47;;;4.13;;
12267;SDS011;6196;48.398;11.736;2023-06-19T13:53:00;6.10;;;4.65;;
12267;SDS011;6196;48.398;11.736;2023-06-19T13:55:28;5.25;;;4.75;;
12267;SDS011;6196;48.398;11.736;2023-06-19T13:57:55;4.90;;;4.50;;
12267;SDS011;6196;48.398;11.736;2023-06-19T14:00:22;4.85;;;4.35;;
12267;SDS011;6196;48.398;11.736;2023-06-19T14:02:49;5.30;;;4.50;;
12267;SDS011;6196;48.398;11.736;2023-06-19T14:05:16;4.80;;;4.50;;
12267;SDS011;6196;48.398;11.736;2023-06-19T14:07:43;4.97;;;4.53;;
12267;SDS011;6196;48.398;11.736;2023-06-19T14:10:10;4.35;;;4.00;;
12267;SDS011;6196;48.398;11.736;2023-06-19T14:12:37;4.88;;;4.47;;
12267;SDS011;6196;48.398;11.736;2023-06-19T14:15:05;4.78;;;4.05;;
12267;SDS011;6196;48.398;11.736;2023-06-19T14:17:34;5.45;;;4.85;;
12267;SDS011;6196;48.398;11.736;2023-06-19T14:20:01;4.80;;;4.40;;
12267;SDS011;6196;48.398;11.736;2023-06-19T14:22:30;4.38;;;3.97;;
12267;SDS011;6196;48.398;11.736;2023-06-19T14:24:57;7.60;;;4.53;;
12267;SDS011;6196;48.398;11.736;2023-06-19T14:27:26;4.50;;;4.10;;
12267;SDS011;6196;48.398;11.736;2023-06-19T14:29:53;4.30;;;3.90;;
12267;SDS011;6196;48.398;11.736;2023-06-19T14:32:21;4.93;;;4.57;;
12267;SDS011;6196;48.398;11.736;2023-06-19T14:34:50;6.45;;;4.22;;
12267;SDS011;6196;48.398;11.736;2023-06-19T14:37:17;5.22;;;4.45;;
12267;SDS011;6196;48.398;11.736;2023-06-19T14:39:44;4.63;;;4.07;;
12267;SDS011;6196;48.398;11.736;2023-06-19T14:42:11;5.43;;;4.25;;
12267;SDS011;6196;48.398;11.736;2023-06-19T14:44:38;4.45;;;4.07;;
12267;SDS011;6196;48.398;11.736;2023-06-19T14:47:05;5.68;;;4.25;;
12267;SDS011;6196;48.398;11.736;2023-06-19T14:49:33;4.78;;;4.03;;